West Palm Beach, FL (33401)

12:23 AM EST on December 10, 2016 (GMT -0500)
BANYAN CAY GOLF - Zaretsky Law Group - West Palm Beach | | Change Station

Elev 60 ft 26.73 °N, 80.08 °W | Updated 10 minutes ago

Heavy Rain
Heavy Rain Mist
67.9 °F
Feels Like 67.9 °F
N
6.0
Wind Variable Wind from NNE
Gusts 10.0 mph

Today
High -- | Low -- °F
--% Chance of Precip.
Yesterday
High -- | Low -- °F
Precip. -- in
Pressure 30.24 in
Visibility 2.0 miles
Clouds Mostly Cloudy 500 ft
Mostly Cloudy 800 ft
Overcast 1400 ft
Dew Point 67 °F
Humidity 95%
Rainfall 0.09 in
Snow Depth Not available.
6:58 AM 5:28 PM
Waxing Gibbous, 80% visible
METAR KPBI 100453Z 27005KT 2SM +RA BR BKN005 BKN008 OVC014 17/17 A3024 RMK AO2 SLP238 P0051 T01720167 402220172 $
Pressure 30.24 in
Visibility 2.0 miles
Clouds Mostly Cloudy 500 ft
Mostly Cloudy 800 ft
Overcast 1400 ft
Dew Point 67 °F
Humidity 95%
Rainfall 0.09 in
Snow Depth Not available.
6:58 AM 5:28 PM
Waxing Gibbous, 80% visible
METAR KPBI 100453Z 27005KT 2SM +RA BR BKN005 BKN008 OVC014 17/17 A3024 RMK AO2 SLP238 P0051 T01720167 402220172 $

10-Day Weather Forecast

Almanac

Astronomy

Dec. 10, 2016 Rise Set
Actual Time
Civil Twilight
Nautical Twilight
Astronomical Twilight
Moon
Length of Visible Light
Length of Day
Tomorrow will be .
, % of the Moon is Illuminated

Today's Extremes

State Highs State Lows

Community

WunderPhotos

Upload Photos

1,956,529 photos uploaded!

WunderBlog® & News

Nearby

Air Quality

  Air Quality AQ Index Pollutant
Not available.

Snow Depth

Station Depth Elevation

Earthquake Activity

City Distance Mag. Time & Date
Minimum magnitude displayed is 2.5.

Coastal Water Temperatures

Place Temperature

Stations

Nearby Weather Stations

Station Location Temp. Windchill Dew Point Humidity Wind Precip. Elev Updated Type
                   

Watches & Warnings

There are currently no watches in effect.